Flugplatz Kehl-Sundheim (EDSK)

Hier findest Du alle Informationen zum Flugplatz Kehl-Sundheim (EDSK).

Informationen für Piloten zum Flugplatz Kehl-Sundheim

Hier findest Du alle relevanten Informationen, die Du als Pilot benötigst, um Kehl-Sundheim anzufliegen.

Flugplatz: Kehl-Sundheim ICAO-Code: EDSK
Frequenz Turm: 122,750 Mhz GAFOR Gebiet: 51
Frequenz Ground: 122,750 Mhz Mogas: ja
Platzrunde: SE 1300 ft Landegebühr: -
Platzhöhe: 452 ft Sunrise: 04:27 Uhr UTC
Pisten: 03/21 - 475 m x 30 m, GRAS Sunset: 18:27 Uhr UTC

Flugwetter am Flugplatz Kehl-Sundheim

Die METAR Information stammen aus EDTL (21.12 km entfernt).

METAR Code:
2024/03/16 17:50
EDTL 161750Z AUTO VRB03KT 9999 // OVC070/// 12/08 Q1023

Flugschulen am Flugplatz Kehl-Sundheim

Am Flugplatz Kehl-Sundheim gibt es 2 Flugschulen.

Benachbarte Flugplätze und Flugschulen

Es gibt 6 weitere Flugplätze in einem Umkreis von 50 km um den Flugplatz Kehl-Sundheim.

Jetzt anmelden

Passwort vergessen

Umfrage Archiv

Wie häufig haltet Ihr die Halbkreisflugregel ein?

Eher häufig!
34.5 %
Immer!
32.4 %
Hin und wieder!
16.4 %
Nie!
9.2 %
Eher selten!
7.6 %
Stimmen: 238 | Diskussion
Anzeige: Roland Aircraft
Statistik Alle Mitglieder

Aktuell sind 31 Besucher online, davon 1 Mitglied und 30 Gäste.


Mitglieder online:
Heli 

Anzeige: EasyVFR